sensor_id;sensor_type;location;lat;lon;timestamp;P1;durP1;ratioP1;P2;durP2;ratioP2
40737;SDS011;54759;48.094;-1.628;2022-12-10T00:01:02;5.20;;;4.25;;
40737;SDS011;54759;48.094;-1.628;2022-12-10T00:04:04;5.20;;;4.30;;
40737;SDS011;54759;48.094;-1.628;2022-12-10T00:07:06;4.53;;;4.00;;
40737;SDS011;54759;48.094;-1.628;2022-12-10T00:10:08;5.13;;;4.07;;
40737;SDS011;54759;48.094;-1.628;2022-12-10T00:13:12;4.70;;;3.92;;
40737;SDS011;54759;48.094;-1.628;2022-12-10T00:16:14;4.60;;;4.10;;
40737;SDS011;54759;48.094;-1.628;2022-12-10T00:19:17;4.22;;;3.75;;
40737;SDS011;54759;48.094;-1.628;2022-12-10T00:22:19;4.10;;;3.70;;
40737;SDS011;54759;48.094;-1.628;2022-12-10T00:25:20;4.70;;;3.92;;
40737;SDS011;54759;48.094;-1.628;2022-12-10T00:28:22;4.60;;;3.78;;
40737;SDS011;54759;48.094;-1.628;2022-12-10T00:31:24;5.13;;;3.90;;
40737;SDS011;54759;48.094;-1.628;2022-12-10T00:34:28;4.35;;;3.95;;
40737;SDS011;54759;48.094;-1.628;2022-12-10T00:37:29;4.93;;;4.18;;
40737;SDS011;54759;48.094;-1.628;2022-12-10T00:40:31;4.22;;;3.83;;
40737;SDS011;54759;48.094;-1.628;2022-12-10T00:43:35;4.65;;;4.13;;
40737;SDS011;54759;48.094;-1.628;2022-12-10T00:46:37;4.45;;;3.53;;
40737;SDS011;54759;48.094;-1.628;2022-12-10T00:49:39;5.30;;;4.00;;
40737;SDS011;54759;48.094;-1.628;2022-12-10T00:52:41;4.72;;;3.92;;
40737;SDS011;54759;48.094;-1.628;2022-12-10T00:55:43;4.93;;;4.10;;
40737;SDS011;54759;48.094;-1.628;2022-12-10T00:58:45;4.13;;;3.72;;
40737;SDS011;54759;48.094;-1.628;2022-12-10T01:01:48;5.13;;;4.32;;
40737;SDS011;54759;48.094;-1.628;2022-12-10T01:04:52;4.30;;;3.80;;
40737;SDS011;54759;48.094;-1.628;2022-12-10T01:07:53;4.70;;;3.78;;
40737;SDS011;54759;48.094;-1.628;2022-12-10T01:10:55;3.90;;;3.50;;
40737;SDS011;54759;48.094;-1.628;2022-12-10T01:13:58;4.90;;;3.72;;
40737;SDS011;54759;48.094;-1.628;2022-12-10T01:17:02;4.32;;;3.83;;
40737;SDS011;54759;48.094;-1.628;2022-12-10T01:20:05;4.68;;;4.03;;
40737;SDS011;54759;48.094;-1.628;2022-12-10T01:23:08;4.95;;;3.95;;
40737;SDS011;54759;48.094;-1.628;2022-12-10T01:26:11;4.43;;;4.03;;
40737;SDS011;54759;48.094;-1.628;2022-12-10T01:29:14;4.57;;;3.97;;
40737;SDS011;54759;48.094;-1.628;2022-12-10T01:32:16;4.10;;;3.60;;
40737;SDS011;54759;48.094;-1.628;2022-12-10T01:35:18;5.22;;;4.45;;
40737;SDS011;54759;48.094;-1.628;2022-12-10T01:38:20;4.10;;;3.70;;
40737;SDS011;54759;48.094;-1.628;2022-12-10T01:41:24;4.70;;;3.95;;
40737;SDS011;54759;48.094;-1.628;2022-12-10T01:47:58;3.65;;;3.35;;
40737;SDS011;54759;48.094;-1.628;2022-12-10T01:51:06;4.50;;;3.80;;
40737;SDS011;54759;48.094;-1.628;2022-12-10T01:54:09;4.55;;;3.30;;
40737;SDS011;54759;48.094;-1.628;2022-12-10T01:57:14;4.45;;;3.75;;
40737;SDS011;54759;48.094;-1.628;2022-12-10T02:00:18;4.30;;;3.90;;
40737;SDS011;54759;48.094;-1.628;2022-12-10T02:03:22;4.50;;;3.90;;
40737;SDS011;54759;48.094;-1.628;2022-12-10T02:06:33;5.07;;;4.13;;
40737;SDS011;54759;48.094;-1.628;2022-12-10T02:09:43;5.35;;;4.40;;
40737;SDS011;54759;48.094;-1.628;2022-12-10T02:12:52;4.28;;;3.88;;
40737;SDS011;54759;48.094;-1.628;2022-12-10T02:16:00;5.78;;;4.30;;
40737;SDS011;54759;48.094;-1.628;2022-12-10T02:19:09;4.07;;;3.55;;
40737;SDS011;54759;48.094;-1.628;2022-12-10T02:22:19;4.93;;;3.88;;
40737;SDS011;54759;48.094;-1.628;2022-12-10T02:25:22;4.57;;;4.13;;
40737;SDS011;54759;48.094;-1.628;2022-12-10T02:28:31;4.00;;;3.60;;
40737;SDS011;54759;48.094;-1.628;2022-12-10T02:31:43;6.32;;;4.65;;
40737;SDS011;54759;48.094;-1.628;2022-12-10T02:34:49;4.90;;;4.40;;
40737;SDS011;54759;48.094;-1.628;2022-12-10T02:37:53;5.20;;;4.40;;
40737;SDS011;54759;48.094;-1.628;2022-12-10T02:40:59;5.15;;;4.25;;
40737;SDS011;54759;48.094;-1.628;2022-12-10T02:44:07;4.53;;;4.03;;
40737;SDS011;54759;48.094;-1.628;2022-12-10T02:47:12;4.47;;;4.05;;
40737;SDS011;54759;48.094;-1.628;2022-12-10T02:50:19;5.45;;;4.63;;
40737;SDS011;54759;48.094;-1.628;2022-12-10T02:53:23;5.47;;;4.45;;
40737;SDS011;54759;48.094;-1.628;2022-12-10T02:56:26;4.85;;;4.35;;
40737;SDS011;54759;48.094;-1.628;2022-12-10T02:59:36;4.40;;;3.65;;
40737;SDS011;54759;48.094;-1.628;2022-12-10T03:02:49;4.68;;;4.18;;
40737;SDS011;54759;48.094;-1.628;2022-12-10T03:06:06;4.18;;;3.75;;
40737;SDS011;54759;48.094;-1.628;2022-12-10T03:09:15;5.68;;;3.92;;
40737;SDS011;54759;48.094;-1.628;2022-12-10T03:12:21;4.72;;;4.00;;
40737;SDS011;54759;48.094;-1.628;2022-12-10T03:15:30;4.07;;;3.67;;
40737;SDS011;54759;48.094;-1.628;2022-12-10T03:18:35;3.97;;;3.40;;
40737;SDS011;54759;48.094;-1.628;2022-12-10T03:21:37;3.65;;;3.25;;
40737;SDS011;54759;48.094;-1.628;2022-12-10T03:24:41;4.57;;;3.95;;
40737;SDS011;54759;48.094;-1.628;2022-12-10T03:27:44;4.93;;;4.03;;
40737;SDS011;54759;48.094;-1.628;2022-12-10T03:30:50;4.53;;;3.80;;
40737;SDS011;54759;48.094;-1.628;2022-12-10T03:33:55;4.18;;;3.60;;
40737;SDS011;54759;48.094;-1.628;2022-12-10T03:36:56;4.05;;;3.63;;
40737;SDS011;54759;48.094;-1.628;2022-12-10T03:39:59;3.83;;;3.42;;
40737;SDS011;54759;48.094;-1.628;2022-12-10T03:43:01;3.72;;;3.33;;
40737;SDS011;54759;48.094;-1.628;2022-12-10T03:46:03;4.72;;;4.03;;
40737;SDS011;54759;48.094;-1.628;2022-12-10T03:49:06;4.28;;;3.47;;
40737;SDS011;54759;48.094;-1.628;2022-12-10T03:52:08;4.10;;;3.70;;
40737;SDS011;54759;48.094;-1.628;2022-12-10T03:55:10;4.25;;;3.47;;
40737;SDS011;54759;48.094;-1.628;2022-12-10T03:58:12;4.15;;;3.65;;
40737;SDS011;54759;48.094;-1.628;2022-12-10T04:01:20;4.00;;;3.53;;
40737;SDS011;54759;48.094;-1.628;2022-12-10T04:04:22;4.03;;;3.55;;
40737;SDS011;54759;48.094;-1.628;2022-12-10T04:07:24;3.70;;;3.35;;
40737;SDS011;54759;48.094;-1.628;2022-12-10T04:10:26;4.00;;;3.60;;
40737;SDS011;54759;48.094;-1.628;2022-12-10T04:13:28;3.40;;;3.00;;
40737;SDS011;54759;48.094;-1.628;2022-12-10T04:16:41;3.28;;;2.95;;
40737;SDS011;54759;48.094;-1.628;2022-12-10T04:19:43;3.35;;;3.00;;
40737;SDS011;54759;48.094;-1.628;2022-12-10T04:22:44;3.80;;;3.40;;
40737;SDS011;54759;48.094;-1.628;2022-12-10T04:26:01;3.17;;;2.63;;
40737;SDS011;54759;48.094;-1.628;2022-12-10T04:29:17;3.10;;;2.80;;
40737;SDS011;54759;48.094;-1.628;2022-12-10T04:32:19;3.45;;;3.15;;
40737;SDS011;54759;48.094;-1.628;2022-12-10T04:35:22;3.42;;;2.85;;
40737;SDS011;54759;48.094;-1.628;2022-12-10T04:38:23;3.33;;;3.00;;
40737;SDS011;54759;48.094;-1.628;2022-12-10T04:41:25;3.53;;;2.90;;
40737;SDS011;54759;48.094;-1.628;2022-12-10T04:44:27;3.00;;;2.70;;
40737;SDS011;54759;48.094;-1.628;2022-12-10T04:47:29;3.25;;;2.95;;
40737;SDS011;54759;48.094;-1.628;2022-12-10T04:50:31;3.65;;;3.00;;
40737;SDS011;54759;48.094;-1.628;2022-12-10T04:53:32;3.67;;;3.38;;
40737;SDS011;54759;48.094;-1.628;2022-12-10T04:56:34;3.33;;;2.88;;
40737;SDS011;54759;48.094;-1.628;2022-12-10T04:59:36;3.35;;;3.05;;
40737;SDS011;54759;48.094;-1.628;2022-12-10T05:02:38;3.80;;;3.42;;
40737;SDS011;54759;48.094;-1.628;2022-12-10T05:05:40;3.40;;;3.10;;
40737;SDS011;54759;48.094;-1.628;2022-12-10T05:08:42;3.20;;;2.70;;
40737;SDS011;54759;48.094;-1.628;2022-12-10T05:11:44;3.30;;;2.97;;
40737;SDS011;54759;48.094;-1.628;2022-12-10T05:14:46;3.70;;;2.90;;
40737;SDS011;54759;48.094;-1.628;2022-12-10T05:17:48;3.05;;;2.80;;
40737;SDS011;54759;48.094;-1.628;2022-12-10T05:20:50;3.00;;;2.67;;
40737;SDS011;54759;48.094;-1.628;2022-12-10T05:23:52;3.00;;;2.70;;
40737;SDS011;54759;48.094;-1.628;2022-12-10T05:29:55;3.15;;;2.63;;
40737;SDS011;54759;48.094;-1.628;2022-12-10T05:32:56;3.00;;;2.67;;
40737;SDS011;54759;48.094;-1.628;2022-12-10T05:35:59;2.95;;;2.65;;
40737;SDS011;54759;48.094;-1.628;2022-12-10T05:39:02;2.53;;;2.33;;
40737;SDS011;54759;48.094;-1.628;2022-12-10T05:42:04;3.15;;;2.30;;
40737;SDS011;54759;48.094;-1.628;2022-12-10T05:45:06;3.28;;;2.92;;
40737;SDS011;54759;48.094;-1.628;2022-12-10T05:48:09;3.35;;;2.70;;
40737;SDS011;54759;48.094;-1.628;2022-12-10T05:51:12;2.88;;;2.58;;
40737;SDS011;54759;48.094;-1.628;2022-12-10T05:54:15;3.13;;;2.83;;
40737;SDS011;54759;48.094;-1.628;2022-12-10T05:57:17;3.85;;;2.70;;
40737;SDS011;54759;48.094;-1.628;2022-12-10T06:00:19;3.08;;;2.63;;
40737;SDS011;54759;48.094;-1.628;2022-12-10T06:03:21;3.25;;;2.58;;
40737;SDS011;54759;48.094;-1.628;2022-12-10T06:06:24;3.13;;;2.75;;
40737;SDS011;54759;48.094;-1.628;2022-12-10T06:09:27;3.75;;;2.72;;
40737;SDS011;54759;48.094;-1.628;2022-12-10T06:12:29;3.13;;;2.83;;
40737;SDS011;54759;48.094;-1.628;2022-12-10T06:15:33;3.38;;;2.92;;
40737;SDS011;54759;48.094;-1.628;2022-12-10T06:18:35;2.88;;;2.58;;
40737;SDS011;54759;48.094;-1.628;2022-12-10T06:21:37;2.83;;;2.53;;
40737;SDS011;54759;48.094;-1.628;2022-12-10T06:24:39;3.33;;;2.90;;
40737;SDS011;54759;48.094;-1.628;2022-12-10T06:27:40;3.28;;;2.78;;
40737;SDS011;54759;48.094;-1.628;2022-12-10T06:30:42;3.40;;;2.88;;
40737;SDS011;54759;48.094;-1.628;2022-12-10T06:33:44;3.75;;;2.88;;
40737;SDS011;54759;48.094;-1.628;2022-12-10T06:36:47;2.83;;;2.60;;
40737;SDS011;54759;48.094;-1.628;2022-12-10T06:39:49;3.28;;;2.97;;
40737;SDS011;54759;48.094;-1.628;2022-12-10T06:42:52;3.22;;;2.92;;
40737;SDS011;54759;48.094;-1.628;2022-12-10T06:45:54;3.20;;;2.80;;
40737;SDS011;54759;48.094;-1.628;2022-12-10T06:48:55;3.17;;;2.88;;
40737;SDS011;54759;48.094;-1.628;2022-12-10T06:51:59;3.33;;;2.75;;
40737;SDS011;54759;48.094;-1.628;2022-12-10T06:55:00;3.20;;;2.90;;
40737;SDS011;54759;48.094;-1.628;2022-12-10T06:58:02;3.60;;;2.83;;
40737;SDS011;54759;48.094;-1.628;2022-12-10T07:01:04;3.30;;;2.88;;
40737;SDS011;54759;48.094;-1.628;2022-12-10T07:04:06;3.05;;;2.75;;
40737;SDS011;54759;48.094;-1.628;2022-12-10T07:07:08;2.75;;;2.45;;
40737;SDS011;54759;48.094;-1.628;2022-12-10T07:10:10;3.10;;;2.75;;
40737;SDS011;54759;48.094;-1.628;2022-12-10T07:13:12;3.03;;;2.70;;
40737;SDS011;54759;48.094;-1.628;2022-12-10T07:16:14;2.97;;;2.40;;
40737;SDS011;54759;48.094;-1.628;2022-12-10T07:19:17;2.80;;;2.50;;
40737;SDS011;54759;48.094;-1.628;2022-12-10T07:22:19;4.03;;;3.13;;
40737;SDS011;54759;48.094;-1.628;2022-12-10T07:25:21;3.20;;;2.85;;
40737;SDS011;54759;48.094;-1.628;2022-12-10T07:28:23;3.08;;;2.78;;
40737;SDS011;54759;48.094;-1.628;2022-12-10T07:31:24;3.05;;;2.72;;
40737;SDS011;54759;48.094;-1.628;2022-12-10T07:34:27;3.08;;;2.75;;
40737;SDS011;54759;48.094;-1.628;2022-12-10T07:37:29;2.80;;;2.42;;
40737;SDS011;54759;48.094;-1.628;2022-12-10T07:40:30;3.83;;;3.00;;
40737;SDS011;54759;48.094;-1.628;2022-12-10T07:43:33;2.78;;;2.55;;
40737;SDS011;54759;48.094;-1.628;2022-12-10T07:46:35;2.97;;;2.67;;
40737;SDS011;54759;48.094;-1.628;2022-12-10T07:49:37;2.78;;;2.47;;
40737;SDS011;54759;48.094;-1.628;2022-12-10T07:52:39;3.25;;;2.85;;
40737;SDS011;54759;48.094;-1.628;2022-12-10T07:55:41;2.80;;;2.53;;
40737;SDS011;54759;48.094;-1.628;2022-12-10T07:58:43;3.03;;;2.63;;
40737;SDS011;54759;48.094;-1.628;2022-12-10T08:01:45;2.88;;;2.53;;
40737;SDS011;54759;48.094;-1.628;2022-12-10T08:04:48;3.00;;;2.70;;
40737;SDS011;54759;48.094;-1.628;2022-12-10T08:07:50;3.00;;;2.70;;
40737;SDS011;54759;48.094;-1.628;2022-12-10T08:10:59;3.00;;;2.70;;
40737;SDS011;54759;48.094;-1.628;2022-12-10T08:14:01;3.22;;;2.50;;
40737;SDS011;54759;48.094;-1.628;2022-12-10T08:17:03;2.63;;;2.42;;
40737;SDS011;54759;48.094;-1.628;2022-12-10T08:20:05;2.50;;;2.30;;
40737;SDS011;54759;48.094;-1.628;2022-12-10T08:23:08;2.83;;;2.42;;
40737;SDS011;54759;48.094;-1.628;2022-12-10T08:26:10;3.22;;;2.40;;
40737;SDS011;54759;48.094;-1.628;2022-12-10T08:29:14;2.95;;;2.55;;
40737;SDS011;54759;48.094;-1.628;2022-12-10T08:32:15;3.22;;;2.60;;
40737;SDS011;54759;48.094;-1.628;2022-12-10T08:35:17;2.95;;;2.65;;
40737;SDS011;54759;48.094;-1.628;2022-12-10T08:38:20;2.75;;;2.53;;
40737;SDS011;54759;48.094;-1.628;2022-12-10T08:41:21;3.05;;;2.63;;
40737;SDS011;54759;48.094;-1.628;2022-12-10T08:44:24;3.30;;;2.92;;
40737;SDS011;54759;48.094;-1.628;2022-12-10T08:47:25;3.10;;;2.80;;
40737;SDS011;54759;48.094;-1.628;2022-12-10T08:50:28;3.22;;;2.78;;
40737;SDS011;54759;48.094;-1.628;2022-12-10T08:53:30;3.10;;;2.67;;
40737;SDS011;54759;48.094;-1.628;2022-12-10T08:56:32;3.20;;;2.90;;
40737;SDS011;54759;48.094;-1.628;2022-12-10T08:59:34;3.38;;;3.08;;
40737;SDS011;54759;48.094;-1.628;2022-12-10T09:02:36;3.67;;;3.35;;
40737;SDS011;54759;48.094;-1.628;2022-12-10T09:05:38;3.65;;;3.25;;
40737;SDS011;54759;48.094;-1.628;2022-12-10T09:08:41;3.35;;;3.05;;
40737;SDS011;54759;48.094;-1.628;2022-12-10T09:11:43;4.38;;;3.65;;
40737;SDS011;54759;48.094;-1.628;2022-12-10T09:14:46;4.35;;;3.90;;
40737;SDS011;54759;48.094;-1.628;2022-12-10T09:17:48;4.63;;;4.13;;
40737;SDS011;54759;48.094;-1.628;2022-12-10T09:20:49;4.60;;;3.80;;
40737;SDS011;54759;48.094;-1.628;2022-12-10T09:23:52;4.38;;;3.95;;
40737;SDS011;54759;48.094;-1.628;2022-12-10T09:26:53;4.10;;;3.53;;
40737;SDS011;54759;48.094;-1.628;2022-12-10T09:29:55;3.67;;;3.38;;
40737;SDS011;54759;48.094;-1.628;2022-12-10T09:32:57;3.38;;;3.08;;
40737;SDS011;54759;48.094;-1.628;2022-12-10T09:35:59;3.67;;;3.38;;
40737;SDS011;54759;48.094;-1.628;2022-12-10T09:39:01;4.20;;;3.50;;
40737;SDS011;54759;48.094;-1.628;2022-12-10T09:42:07;3.33;;;2.88;;
40737;SDS011;54759;48.094;-1.628;2022-12-10T09:45:19;3.20;;;2.90;;
40737;SDS011;54759;48.094;-1.628;2022-12-10T09:48:32;3.25;;;2.95;;
40737;SDS011;54759;48.094;-1.628;2022-12-10T09:51:48;2.95;;;2.65;;
40737;SDS011;54759;48.094;-1.628;2022-12-10T09:54:52;2.75;;;2.50;;
40737;SDS011;54759;48.094;-1.628;2022-12-10T09:57:55;2.90;;;2.60;;
40737;SDS011;54759;48.094;-1.628;2022-12-10T10:00:58;3.35;;;2.55;;
40737;SDS011;54759;48.094;-1.628;2022-12-10T10:04:02;2.97;;;2.60;;
40737;SDS011;54759;48.094;-1.628;2022-12-10T10:07:04;2.75;;;2.55;;
40737;SDS011;54759;48.094;-1.628;2022-12-10T10:10:18;2.72;;;2.53;;
40737;SDS011;54759;48.094;-1.628;2022-12-10T10:13:27;3.08;;;2.70;;
40737;SDS011;54759;48.094;-1.628;2022-12-10T10:16:35;3.10;;;2.80;;
40737;SDS011;54759;48.094;-1.628;2022-12-10T10:19:40;2.83;;;2.53;;
40737;SDS011;54759;48.094;-1.628;2022-12-10T10:22:42;2.85;;;2.55;;
40737;SDS011;54759;48.094;-1.628;2022-12-10T10:25:44;2.85;;;2.60;;
40737;SDS011;54759;48.094;-1.628;2022-12-10T10:28:55;3.03;;;2.72;;
40737;SDS011;54759;48.094;-1.628;2022-12-10T10:38:32;2.40;;;1.95;;
40737;SDS011;54759;48.094;-1.628;2022-12-10T10:41:35;2.60;;;2.38;;
40737;SDS011;54759;48.094;-1.628;2022-12-10T10:44:40;2.25;;;2.05;;
40737;SDS011;54759;48.094;-1.628;2022-12-10T10:47:43;2.25;;;2.03;;
40737;SDS011;54759;48.094;-1.628;2022-12-10T10:50:45;2.70;;;2.30;;
40737;SDS011;54759;48.094;-1.628;2022-12-10T10:53:48;1.83;;;1.73;;
40737;SDS011;54759;48.094;-1.628;2022-12-10T10:56:53;2.45;;;2.25;;
40737;SDS011;54759;48.094;-1.628;2022-12-10T10:59:56;3.55;;;2.58;;
40737;SDS011;54759;48.094;-1.628;2022-12-10T11:03:10;3.42;;;2.60;;
40737;SDS011;54759;48.094;-1.628;2022-12-10T11:06:12;2.33;;;2.13;;
40737;SDS011;54759;48.094;-1.628;2022-12-10T11:09:14;2.90;;;2.30;;
40737;SDS011;54759;48.094;-1.628;2022-12-10T11:12:28;2.15;;;1.95;;
40737;SDS011;54759;48.094;-1.628;2022-12-10T11:15:35;2.08;;;1.88;;
40737;SDS011;54759;48.094;-1.628;2022-12-10T11:18:39;2.35;;;1.98;;
40737;SDS011;54759;48.094;-1.628;2022-12-10T11:21:42;2.35;;;2.15;;
40737;SDS011;54759;48.094;-1.628;2022-12-10T11:24:45;2.20;;;1.95;;
40737;SDS011;54759;48.094;-1.628;2022-12-10T11:27:49;2.30;;;2.10;;
40737;SDS011;54759;48.094;-1.628;2022-12-10T11:30:58;2.85;;;2.50;;
40737;SDS011;54759;48.094;-1.628;2022-12-10T11:34:15;2.38;;;2.13;;
40737;SDS011;54759;48.094;-1.628;2022-12-10T11:37:24;2.00;;;1.70;;
40737;SDS011;54759;48.094;-1.628;2022-12-10T11:40:38;2.40;;;2.00;;
40737;SDS011;54759;48.094;-1.628;2022-12-10T11:43:50;1.88;;;1.65;;
40737;SDS011;54759;48.094;-1.628;2022-12-10T11:47:11;1.45;;;1.33;;
40737;SDS011;54759;48.094;-1.628;2022-12-10T11:50:24;1.95;;;1.67;;
40737;SDS011;54759;48.094;-1.628;2022-12-10T11:53:35;1.80;;;1.55;;
40737;SDS011;54759;48.094;-1.628;2022-12-10T11:56:48;1.70;;;1.30;;
40737;SDS011;54759;48.094;-1.628;2022-12-10T11:59:57;1.35;;;1.25;;
40737;SDS011;54759;48.094;-1.628;2022-12-10T12:06:18;1.75;;;1.50;;
40737;SDS011;54759;48.094;-1.628;2022-12-10T12:09:29;1.75;;;1.50;;
40737;SDS011;54759;48.094;-1.628;2022-12-10T12:12:41;1.60;;;1.50;;
40737;SDS011;54759;48.094;-1.628;2022-12-10T12:15:57;1.63;;;1.50;;
40737;SDS011;54759;48.094;-1.628;2022-12-10T12:19:02;1.58;;;1.48;;
40737;SDS011;54759;48.094;-1.628;2022-12-10T12:22:11;1.63;;;1.52;;
40737;SDS011;54759;48.094;-1.628;2022-12-10T12:25:16;2.28;;;1.77;;
40737;SDS011;54759;48.094;-1.628;2022-12-10T12:28:24;2.35;;;1.80;;
40737;SDS011;54759;48.094;-1.628;2022-12-10T12:31:34;2.40;;;1.95;;
40737;SDS011;54759;48.094;-1.628;2022-12-10T12:34:41;2.00;;;1.70;;
40737;SDS011;54759;48.094;-1.628;2022-12-10T12:37:51;2.00;;;1.80;;
40737;SDS011;54759;48.094;-1.628;2022-12-10T12:40:57;2.30;;;2.08;;
40737;SDS011;54759;48.094;-1.628;2022-12-10T12:44:07;2.72;;;2.00;;
40737;SDS011;54759;48.094;-1.628;2022-12-10T12:47:16;3.28;;;2.03;;
40737;SDS011;54759;48.094;-1.628;2022-12-10T12:50:28;2.50;;;2.30;;
40737;SDS011;54759;48.094;-1.628;2022-12-10T12:53:37;2.60;;;1.83;;
40737;SDS011;54759;48.094;-1.628;2022-12-10T12:56:47;2.78;;;2.30;;
40737;SDS011;54759;48.094;-1.628;2022-12-10T12:59:58;2.70;;;2.30;;
40737;SDS011;54759;48.094;-1.628;2022-12-10T13:03:07;2.65;;;2.20;;
40737;SDS011;54759;48.094;-1.628;2022-12-10T13:06:21;2.03;;;1.83;;
40737;SDS011;54759;48.094;-1.628;2022-12-10T13:09:25;1.92;;;1.73;;
40737;SDS011;54759;48.094;-1.628;2022-12-10T13:12:28;1.58;;;1.48;;
40737;SDS011;54759;48.094;-1.628;2022-12-10T13:15:33;1.75;;;1.40;;
40737;SDS011;54759;48.094;-1.628;2022-12-10T13:18:37;1.58;;;1.27;;
40737;SDS011;54759;48.094;-1.628;2022-12-10T13:21:46;1.70;;;1.55;;
40737;SDS011;54759;48.094;-1.628;2022-12-10T13:25:02;1.40;;;1.30;;
40737;SDS011;54759;48.094;-1.628;2022-12-10T13:28:16;1.42;;;1.17;;
40737;SDS011;54759;48.094;-1.628;2022-12-10T13:34:40;1.02;;;0.93;;
40737;SDS011;54759;48.094;-1.628;2022-12-10T13:40:57;1.35;;;1.23;;
40737;SDS011;54759;48.094;-1.628;2022-12-10T13:47:41;1.20;;;1.10;;
40737;SDS011;54759;48.094;-1.628;2022-12-10T13:55:00;1.20;;;1.10;;
40737;SDS011;54759;48.094;-1.628;2022-12-10T13:58:25;1.23;;;1.13;;
40737;SDS011;54759;48.094;-1.628;2022-12-10T14:01:38;1.20;;;0.90;;
40737;SDS011;54759;48.094;-1.628;2022-12-10T14:04:57;1.27;;;0.80;;
40737;SDS011;54759;48.094;-1.628;2022-12-10T14:08:08;1.13;;;0.95;;
40737;SDS011;54759;48.094;-1.628;2022-12-10T14:11:18;1.15;;;1.05;;
40737;SDS011;54759;48.094;-1.628;2022-12-10T14:14:24;1.10;;;0.90;;
40737;SDS011;54759;48.094;-1.628;2022-12-10T14:17:32;1.00;;;0.90;;
40737;SDS011;54759;48.094;-1.628;2022-12-10T14:20:36;1.20;;;1.10;;
40737;SDS011;54759;48.094;-1.628;2022-12-10T14:23:44;1.17;;;0.90;;
40737;SDS011;54759;48.094;-1.628;2022-12-10T14:26:55;1.02;;;0.80;;
40737;SDS011;54759;48.094;-1.628;2022-12-10T14:30:00;1.00;;;0.90;;
40737;SDS011;54759;48.094;-1.628;2022-12-10T14:33:03;0.98;;;0.88;;
40737;SDS011;54759;48.094;-1.628;2022-12-10T14:36:05;1.02;;;0.90;;
40737;SDS011;54759;48.094;-1.628;2022-12-10T14:39:10;1.17;;;0.80;;
40737;SDS011;54759;48.094;-1.628;2022-12-10T14:42:15;1.00;;;0.80;;
40737;SDS011;54759;48.094;-1.628;2022-12-10T14:45:17;0.95;;;0.73;;
40737;SDS011;54759;48.094;-1.628;2022-12-10T14:48:20;1.05;;;0.70;;
40737;SDS011;54759;48.094;-1.628;2022-12-10T14:51:22;0.85;;;0.77;;
40737;SDS011;54759;48.094;-1.628;2022-12-10T14:54:26;0.88;;;0.70;;
40737;SDS011;54759;48.094;-1.628;2022-12-10T14:57:31;0.80;;;0.70;;
40737;SDS011;54759;48.094;-1.628;2022-12-10T15:00:36;1.05;;;0.75;;
40737;SDS011;54759;48.094;-1.628;2022-12-10T15:03:39;0.68;;;0.68;;
40737;SDS011;54759;48.094;-1.628;2022-12-10T15:06:46;1.23;;;0.70;;
40737;SDS011;54759;48.094;-1.628;2022-12-10T15:09:48;0.60;;;0.60;;
40737;SDS011;54759;48.094;-1.628;2022-12-10T15:12:52;0.70;;;0.50;;
40737;SDS011;54759;48.094;-1.628;2022-12-10T15:15:55;0.77;;;0.73;;
40737;SDS011;54759;48.094;-1.628;2022-12-10T15:19:06;0.80;;;0.70;;
40737;SDS011;54759;48.094;-1.628;2022-12-10T15:22:18;0.75;;;0.70;;
40737;SDS011;54759;48.094;-1.628;2022-12-10T15:25:25;0.77;;;0.73;;
40737;SDS011;54759;48.094;-1.628;2022-12-10T15:28:29;0.80;;;0.80;;
40737;SDS011;54759;48.094;-1.628;2022-12-10T15:31:32;0.70;;;0.70;;
40737;SDS011;54759;48.094;-1.628;2022-12-10T15:34:37;0.98;;;0.80;;
40737;SDS011;54759;48.094;-1.628;2022-12-10T15:37:42;0.77;;;0.70;;
40737;SDS011;54759;48.094;-1.628;2022-12-10T15:40:45;0.80;;;0.70;;
40737;SDS011;54759;48.094;-1.628;2022-12-10T15:43:53;0.98;;;0.80;;
40737;SDS011;54759;48.094;-1.628;2022-12-10T15:50:02;0.82;;;0.80;;
40737;SDS011;54759;48.094;-1.628;2022-12-10T15:53:04;1.00;;;0.90;;
40737;SDS011;54759;48.094;-1.628;2022-12-10T15:56:06;0.98;;;0.77;;
40737;SDS011;54759;48.094;-1.628;2022-12-10T15:59:08;0.65;;;0.63;;
40737;SDS011;54759;48.094;-1.628;2022-12-10T16:02:14;1.20;;;1.00;;
40737;SDS011;54759;48.094;-1.628;2022-12-10T16:05:28;0.85;;;0.63;;
40737;SDS011;54759;48.094;-1.628;2022-12-10T16:08:30;1.15;;;1.02;;
40737;SDS011;54759;48.094;-1.628;2022-12-10T16:11:35;1.20;;;0.80;;
40737;SDS011;54759;48.094;-1.628;2022-12-10T16:14:37;1.25;;;0.70;;
40737;SDS011;54759;48.094;-1.628;2022-12-10T16:17:39;1.00;;;0.90;;
40737;SDS011;54759;48.094;-1.628;2022-12-10T16:20:41;1.65;;;1.13;;
40737;SDS011;54759;48.094;-1.628;2022-12-10T16:23:43;1.30;;;1.05;;
40737;SDS011;54759;48.094;-1.628;2022-12-10T16:26:44;1.30;;;1.13;;
40737;SDS011;54759;48.094;-1.628;2022-12-10T16:29:47;1.17;;;1.05;;
40737;SDS011;54759;48.094;-1.628;2022-12-10T16:32:49;1.20;;;1.00;;
40737;SDS011;54759;48.094;-1.628;2022-12-10T16:35:52;1.10;;;1.00;;
40737;SDS011;54759;48.094;-1.628;2022-12-10T16:38:54;1.20;;;1.10;;
40737;SDS011;54759;48.094;-1.628;2022-12-10T16:41:55;1.30;;;1.20;;
40737;SDS011;54759;48.094;-1.628;2022-12-10T16:44:58;1.23;;;1.10;;
40737;SDS011;54759;48.094;-1.628;2022-12-10T16:48:08;1.10;;;1.00;;
40737;SDS011;54759;48.094;-1.628;2022-12-10T16:51:13;1.15;;;0.90;;
40737;SDS011;54759;48.094;-1.628;2022-12-10T16:54:18;1.05;;;0.95;;
40737;SDS011;54759;48.094;-1.628;2022-12-10T16:57:20;1.58;;;1.30;;
40737;SDS011;54759;48.094;-1.628;2022-12-10T17:00:23;1.60;;;1.40;;
40737;SDS011;54759;48.094;-1.628;2022-12-10T17:03:25;1.58;;;1.17;;
40737;SDS011;54759;48.094;-1.628;2022-12-10T17:06:29;1.42;;;1.20;;
40737;SDS011;54759;48.094;-1.628;2022-12-10T17:09:30;1.40;;;1.30;;
40737;SDS011;54759;48.094;-1.628;2022-12-10T17:12:32;1.52;;;1.40;;
40737;SDS011;54759;48.094;-1.628;2022-12-10T17:15:34;1.70;;;1.60;;
40737;SDS011;54759;48.094;-1.628;2022-12-10T17:18:36;2.15;;;1.95;;
40737;SDS011;54759;48.094;-1.628;2022-12-10T17:21:38;2.47;;;2.20;;
40737;SDS011;54759;48.094;-1.628;2022-12-10T17:24:40;3.28;;;2.50;;
40737;SDS011;54759;48.094;-1.628;2022-12-10T17:27:41;2.53;;;2.33;;
40737;SDS011;54759;48.094;-1.628;2022-12-10T17:30:44;3.15;;;2.70;;
40737;SDS011;54759;48.094;-1.628;2022-12-10T17:33:47;2.85;;;2.55;;
40737;SDS011;54759;48.094;-1.628;2022-12-10T17:36:52;3.13;;;2.83;;
40737;SDS011;54759;48.094;-1.628;2022-12-10T17:39:54;3.35;;;2.80;;
40737;SDS011;54759;48.094;-1.628;2022-12-10T17:42:56;3.00;;;2.70;;
40737;SDS011;54759;48.094;-1.628;2022-12-10T17:45:58;3.28;;;2.83;;
40737;SDS011;54759;48.094;-1.628;2022-12-10T17:49:00;3.45;;;3.15;;
40737;SDS011;54759;48.094;-1.628;2022-12-10T17:52:02;3.67;;;2.97;;
40737;SDS011;54759;48.094;-1.628;2022-12-10T17:55:04;3.67;;;3.25;;
40737;SDS011;54759;48.094;-1.628;2022-12-10T17:58:06;4.13;;;3.42;;
40737;SDS011;54759;48.094;-1.628;2022-12-10T18:01:09;3.20;;;2.90;;
40737;SDS011;54759;48.094;-1.628;2022-12-10T18:04:10;4.13;;;3.40;;
40737;SDS011;54759;48.094;-1.628;2022-12-10T18:07:13;4.00;;;3.55;;
40737;SDS011;54759;48.094;-1.628;2022-12-10T18:10:18;4.18;;;3.50;;
40737;SDS011;54759;48.094;-1.628;2022-12-10T18:13:21;3.33;;;3.03;;
40737;SDS011;54759;48.094;-1.628;2022-12-10T18:16:24;3.78;;;3.30;;
40737;SDS011;54759;48.094;-1.628;2022-12-10T18:19:30;3.67;;;2.90;;
40737;SDS011;54759;48.094;-1.628;2022-12-10T18:22:32;4.10;;;3.50;;
40737;SDS011;54759;48.094;-1.628;2022-12-10T18:25:35;3.33;;;3.00;;
40737;SDS011;54759;48.094;-1.628;2022-12-10T18:28:45;3.65;;;3.22;;
40737;SDS011;54759;48.094;-1.628;2022-12-10T18:31:49;3.13;;;2.65;;
40737;SDS011;54759;48.094;-1.628;2022-12-10T18:34:51;2.85;;;2.53;;
40737;SDS011;54759;48.094;-1.628;2022-12-10T18:37:53;4.03;;;3.13;;
40737;SDS011;54759;48.094;-1.628;2022-12-10T18:40:54;4.28;;;3.03;;
40737;SDS011;54759;48.094;-1.628;2022-12-10T18:43:56;3.35;;;2.65;;
40737;SDS011;54759;48.094;-1.628;2022-12-10T18:46:59;3.47;;;3.10;;